TimeCDT,TemperatureF,Dew PointF,Humidity,Sea Level PressureIn,VisibilityMPH,Wind Direction,Wind SpeedMPH,Gust SpeedMPH,PrecipitationIn,Events,Conditions,WindDirDegrees,DateUTC
12:13 AM,41.0,37.4,87,29.97,10.0,Calm,Calm,-,N/A,,Clear,0,2013-09-24 05:13:00
12:33 AM,39.2,37.4,93,29.97,4.0,Calm,Calm,-,N/A,,Clear,0,2013-09-24 05:33:00
12:53 AM,39.2,37.4,93,29.97,10.0,Calm,Calm,-,N/A,,Clear,0,2013-09-24 05:53:00
1:13 AM,39.2,35.6,87,29.98,10.0,Calm,Calm,-,N/A,,Clear,0,2013-09-24 06:13:00
1:33 AM,37.4,35.6,93,29.98,7.0,Calm,Calm,-,N/A,,Clear,0,2013-09-24 06:33:00
1:53 AM,37.4,35.6,93,29.98,10.0,Calm,Calm,-,N/A,,Clear,0,2013-09-24 06:53:00
2:13 AM,37.4,35.6,93,29.98,10.0,Calm,Calm,-,N/A,,Clear,0,2013-09-24 07:13:00
2:33 AM,37.4,35.6,93,29.98,10.0,Calm,Calm,-,N/A,,Clear,0,2013-09-24 07:33:00
2:53 AM,35.6,33.8,93,29.98,10.0,Calm,Calm,-,N/A,,Clear,0,2013-09-24 07:53:00
3:13 AM,35.6,33.8,93,29.98,10.0,Calm,Calm,-,N/A,,Clear,0,2013-09-24 08:13:00
3:33 AM,35.6,33.8,93,29.98,10.0,Calm,Calm,-,N/A,,Clear,0,2013-09-24 08:33:00
3:53 AM,35.6,32.0,87,29.98,10.0,Calm,Calm,-,N/A,,Clear,0,2013-09-24 08:53:00
4:13 AM,35.6,33.8,93,29.99,10.0,Calm,Calm,-,N/A,,Clear,0,2013-09-24 09:13:00
4:33 AM,35.6,32.0,87,29.99,10.0,Calm,Calm,-,N/A,,Clear,0,2013-09-24 09:33:00
4:53 AM,33.8,30.2,87,29.99,10.0,Calm,Calm,-,N/A,,Clear,0,2013-09-24 09:53:00
5:13 AM,33.8,30.2,87,29.99,10.0,Calm,Calm,-,N/A,,Clear,0,2013-09-24 10:13:00
5:33 AM,33.8,30.2,87,29.99,10.0,Calm,Calm,-,N/A,,Clear,0,2013-09-24 10:33:00
5:53 AM,33.8,30.2,87,29.99,10.0,Calm,Calm,-,N/A,,Clear,0,2013-09-24 10:53:00
6:13 AM,33.8,30.2,87,29.99,10.0,Calm,Calm,-,N/A,,Clear,0,2013-09-24 11:13:00
6:33 AM,33.8,30.2,87,29.99,10.0,Calm,Calm,-,N/A,,Clear,0,2013-09-24 11:33:00
6:53 AM,33.8,30.2,87,29.99,10.0,Calm,Calm,-,N/A,,Clear,0,2013-09-24 11:53:00
7:13 AM,33.8,30.2,87,29.99,10.0,Calm,Calm,-,N/A,,Clear,0,2013-09-24 12:13:00
7:33 AM,33.8,30.2,87,30.00,10.0,Calm,Calm,-,N/A,,Clear,0,2013-09-24 12:33:00
7:53 AM,35.6,32.0,87,30.00,10.0,Calm,Calm,-,N/A,,Clear,0,2013-09-24 12:53:00
8:13 AM,37.4,35.6,93,30.00,10.0,Calm,Calm,-,N/A,,Clear,0,2013-09-24 13:13:00
8:33 AM,42.8,39.2,87,30.00,10.0,Calm,Calm,-,N/A,,Clear,0,2013-09-24 13:33:00
8:53 AM,46.4,42.8,87,30.00,10.0,Calm,Calm,-,N/A,,Clear,0,2013-09-24 13:53:00
9:13 AM,53.6,46.4,77,30.00,10.0,Calm,Calm,-,N/A,,Clear,0,2013-09-24 14:13:00
9:33 AM,55.4,46.4,72,30.00,10.0,Calm,Calm,-,N/A,,Clear,0,2013-09-24 14:33:00
9:53 AM,55.4,46.4,72,30.00,10.0,Calm,Calm,-,N/A,,Clear,0,2013-09-24 14:53:00
10:13 AM,57.2,46.4,67,30.00,10.0,SE,4.6,-,N/A,,Clear,130,2013-09-24 15:13:00
10:33 AM,57.2,46.4,67,30.00,10.0,Calm,Calm,-,N/A,,Clear,0,2013-09-24 15:33:00
10:53 AM,59.0,46.4,63,30.00,10.0,SE,3.5,-,N/A,,Clear,130,2013-09-24 15:53:00
11:13 AM,59.0,46.4,63,30.00,10.0,SE,4.6,-,N/A,,Clear,130,2013-09-24 16:13:00
11:33 AM,60.8,46.4,59,30.00,10.0,SSE,5.8,-,N/A,,Clear,160,2013-09-24 16:33:00
11:53 AM,60.8,46.4,59,30.00,10.0,South,3.5,-,N/A,,Clear,170,2013-09-24 16:53:00
12:13 PM,60.8,46.4,59,30.00,10.0,SSE,4.6,-,N/A,,Clear,160,2013-09-24 17:13:00
12:33 PM,60.8,46.4,59,30.00,10.0,East,3.5,-,N/A,,Clear,80,2013-09-24 17:33:00
12:53 PM,62.6,46.4,55,29.99,10.0,SE,4.6,-,N/A,,Clear,130,2013-09-24 17:53:00
1:13 PM,62.6,46.4,55,29.99,10.0,ESE,3.5,-,N/A,,Clear,120,2013-09-24 18:13:00
1:33 PM,62.6,46.4,55,29.98,10.0,SSE,3.5,-,N/A,,Clear,160,2013-09-24 18:33:00
1:53 PM,62.6,46.4,55,29.97,10.0,SSE,4.6,-,N/A,,Clear,150,2013-09-24 18:53:00
2:13 PM,64.4,44.6,49,29.97,10.0,SE,5.8,-,N/A,,Clear,140,2013-09-24 19:13:00
2:33 PM,64.4,46.4,52,29.96,10.0,SE,3.5,-,N/A,,Clear,140,2013-09-24 19:33:00
2:53 PM,64.4,46.4,52,29.96,10.0,SE,5.8,-,N/A,,Clear,130,2013-09-24 19:53:00
3:13 PM,64.4,46.4,52,29.96,10.0,SSE,5.8,-,N/A,,Clear,160,2013-09-24 20:13:00
3:33 PM,64.4,46.4,52,29.95,10.0,East,4.6,-,N/A,,Clear,90,2013-09-24 20:33:00
3:53 PM,64.4,46.4,52,29.95,10.0,East,4.6,-,N/A,,Clear,90,2013-09-24 20:53:00
4:13 PM,62.6,48.2,59,29.95,10.0,ENE,4.6,-,N/A,,Clear,70,2013-09-24 21:13:00
4:33 PM,60.8,46.4,59,29.95,10.0,ENE,3.5,-,N/A,,Clear,60,2013-09-24 21:33:00
4:53 PM,60.8,46.4,59,29.95,10.0,Calm,Calm,-,N/A,,Clear,0,2013-09-24 21:53:00
5:13 PM,60.8,46.4,59,29.96,10.0,ENE,3.5,-,N/A,,Clear,60,2013-09-24 22:13:00
5:33 PM,60.8,46.4,59,29.96,10.0,NE,3.5,-,N/A,,Clear,50,2013-09-24 22:33:00
5:53 PM,57.2,46.4,67,29.96,10.0,ENE,3.5,-,N/A,,Clear,60,2013-09-24 22:53:00
6:13 PM,57.2,46.4,67,29.96,10.0,Calm,Calm,-,N/A,,Clear,0,2013-09-24 23:13:00
6:33 PM,55.4,46.4,72,29.96,10.0,Calm,Calm,-,N/A,,Clear,0,2013-09-24 23:33:00
6:53 PM,53.6,46.4,77,29.96,10.0,Calm,Calm,-,N/A,,Clear,0,2013-09-24 23:53:00
7:13 PM,51.8,46.4,82,29.97,10.0,Calm,Calm,-,N/A,,Clear,0,2013-09-25 00:13:00
7:33 PM,51.8,44.6,76,29.97,10.0,Calm,Calm,-,N/A,,Clear,0,2013-09-25 00:33:00
7:53 PM,51.8,44.6,76,29.97,10.0,Calm,Calm,-,N/A,,Clear,0,2013-09-25 00:53:00
8:13 PM,48.2,44.6,87,29.98,10.0,Calm,Calm,-,N/A,,Clear,0,2013-09-25 01:13:00
8:33 PM,46.4,42.8,87,29.98,10.0,Calm,Calm,-,N/A,,Clear,0,2013-09-25 01:33:00
8:53 PM,46.4,42.8,87,29.98,10.0,Calm,Calm,-,N/A,,Clear,0,2013-09-25 01:53:00
9:13 PM,46.4,42.8,87,29.98,10.0,Calm,Calm,-,N/A,,Clear,0,2013-09-25 02:13:00
9:33 PM,44.6,41.0,87,29.97,10.0,Calm,Calm,-,N/A,,Clear,0,2013-09-25 02:33:00
9:53 PM,44.6,41.0,87,29.97,10.0,Calm,Calm,-,N/A,,Clear,0,2013-09-25 02:53:00
10:13 PM,44.6,41.0,87,29.97,10.0,Calm,Calm,-,N/A,,Clear,0,2013-09-25 03:13:00
10:33 PM,42.8,39.2,87,29.97,7.0,Calm,Calm,-,N/A,,Clear,0,2013-09-25 03:33:00
10:53 PM,42.8,39.2,87,29.97,7.0,Calm,Calm,-,N/A,,Clear,0,2013-09-25 03:53:00
11:13 PM,42.8,39.2,87,29.97,10.0,Calm,Calm,-,N/A,,Clear,0,2013-09-25 04:13:00
11:33 PM,42.8,39.2,87,29.97,10.0,Calm,Calm,-,N/A,,Clear,0,2013-09-25 04:33:00
11:53 PM,42.8,39.2,87,29.97,7.0,Calm,Calm,-,N/A,,Clear,0,2013-09-25 04:53:00